Time;durP1;ratioP1;P1;durP2;ratioP2;P2;SDS_P1;SDS_P2;PMS_P1;PMS_P2;Temp;Humidity;BMP_temperature;BMP_pressure;BME280_temperature;BME280_humidity;BME280_pressure;Samples;Min_cycle;Max_cycle;Signal;HPM_P1;HPM_P2
2020/12/27 09:09:23;;;;;;;25.30;9.13;;;;;;;0.43;75.52;99030.55;119855;1151;104350;-71
2020/12/27 09:11:51;;;;;;;25.70;10.73;;;;;;;0.68;76.01;99028.90;119976;1151;104399;-75
2020/12/27 09:14:37;;;;;;;24.43;8.83;;;;;;;1.07;75.05;99030.24;119766;1153;104355;-72
2020/12/27 09:17:08;;;;;;;24.73;9.93;;;;;;;1.47;75.25;99028.84;119948;1153;104391;-71
2020/12/27 09:19:36;;;;;;;26.15;9.55;;;;;;;1.78;75.00;99025.95;119887;1152;104466;-71
2020/12/27 09:22:06;;;;;;;27.30;9.87;;;;;;;1.93;75.07;99031.52;119984;1151;104359;-70
2020/12/27 09:24:33;;;;;;;24.13;8.83;;;;;;;2.07;74.81;99037.10;119897;1151;104364;-70
2020/12/27 09:27:11;;;;;;;25.07;9.63;;;;;;;2.22;74.63;99027.78;119823;1153;104469;-72
2020/12/27 09:29:38;;;;;;;22.93;10.07;;;;;;;2.30;74.86;99030.09;119837;1151;104455;-71
2020/12/27 09:32:13;;;;;;;28.57;11.07;;;;;;;2.37;74.51;99025.47;119848;1151;104361;-71
2020/12/27 09:34:41;;;;;;;26.00;9.97;;;;;;;2.44;75.00;99031.32;119810;1152;104356;-69
2020/12/27 09:37:17;;;;;;;25.50;10.37;;;;;;;2.49;74.41;99024.13;119610;1152;104460;-69
2020/12/27 09:39:55;;;;;;;23.75;10.10;;;;;;;2.52;74.68;99031.88;119861;1151;104382;-69
2020/12/27 09:42:25;;;;;;;24.23;10.03;;;;;;;2.48;74.13;99028.50;119960;1151;104461;-72
2020/12/27 09:44:56;;;;;;;27.73;10.40;;;;;;;2.44;74.54;99026.08;119990;1151;104387;-72
2020/12/27 09:47:28;;;;;;;26.27;11.47;;;;;;;2.38;74.60;99011.44;119992;1153;104461;-74
2020/12/27 09:50:08;;;;;;;26.27;11.27;;;;;;;2.38;74.48;99017.52;120058;1151;104456;-74
2020/12/27 09:52:47;;;;;;;28.33;11.27;;;;;;;2.37;75.15;99022.84;119980;1151;104483;-72
2020/12/27 09:55:14;;;;;;;27.67;11.53;;;;;;;2.27;74.69;99008.38;119998;1151;104485;-72
2020/12/27 09:57:41;;;;;;;26.83;10.63;;;;;;;2.31;75.06;99010.80;120582;1151;104486;-72
2020/12/27 10:00:10;;;;;;;26.77;11.93;;;;;;;2.40;74.75;99006.98;119950;1151;104458;-72
2020/12/27 10:02:38;;;;;;;25.65;10.90;;;;;;;2.47;75.05;99008.41;119961;1151;104423;-73
2020/12/27 10:05:10;;;;;;;27.07;11.47;;;;;;;2.57;74.97;99001.03;119990;1151;104790;-73
2020/12/27 10:07:39;;;;;;;28.47;12.40;;;;;;;2.66;74.45;98999.80;119960;1151;104483;-73
2020/12/27 10:10:09;;;;;;;26.73;11.23;;;;;;;2.75;74.62;98991.55;119961;1152;104353;-71
2020/12/27 10:12:38;;;;;;;24.80;9.90;;;;;;;2.86;74.65;98990.21;120022;1153;105267;-72
2020/12/27 10:15:08;;;;;;;22.67;8.87;;;;;;;2.93;74.88;98970.64;120019;1152;104500;-71
2020/12/27 10:17:36;;;;;;;22.33;8.17;;;;;;;3.00;74.78;98966.84;120015;1151;104451;-71
2020/12/27 10:20:10;;;;;;;19.63;7.60;;;;;;;3.07;74.24;98956.91;120006;1151;104627;-75
2020/12/27 10:22:38;;;;;;;17.37;5.50;;;;;;;3.18;74.58;98953.83;120032;1151;104378;-73
2020/12/27 10:25:06;;;;;;;14.87;5.50;;;;;;;3.26;74.31;98941.20;119935;1152;104436;-72
2020/12/27 10:27:35;;;;;;;16.03;5.80;;;;;;;3.26;74.55;98928.89;119940;1152;104461;-71
2020/12/27 10:30:05;;;;;;;14.77;4.87;;;;;;;3.23;74.29;98936.08;120014;1151;104468;-72
2020/12/27 10:32:32;;;;;;;14.47;5.13;;;;;;;3.18;74.33;98932.80;119967;1153;104516;-73
2020/12/27 10:34:59;;;;;;;12.33;4.60;;;;;;;3.17;73.99;98928.47;119989;1152;104326;-70
2020/12/27 10:37:26;;;;;;;14.93;4.70;;;;;;;3.15;73.95;98912.75;120187;1153;104401;-76
2020/12/27 10:39:53;;;;;;;15.73;5.30;;;;;;;3.13;74.26;98904.08;119941;1153;104358;-75
2020/12/27 10:42:20;;;;;;;11.83;4.77;;;;;;;3.04;73.65;98894.84;119934;1151;104451;-75
2020/12/27 10:44:46;;;;;;;16.07;5.00;;;;;;;3.00;74.42;98892.42;121020;1153;104655;-76
2020/12/27 10:47:13;;;;;;;14.40;5.30;;;;;;;2.96;73.60;98884.67;120034;1152;104380;-74
2020/12/27 10:49:40;;;;;;;12.33;5.50;;;;;;;3.01;73.93;98878.36;119971;1153;104453;-74
2020/12/27 10:52:08;;;;;;;13.70;4.70;;;;;;;3.02;73.82;98874.81;119963;1151;104423;-80
2020/12/27 10:54:35;;;;;;;17.10;6.10;;;;;;;3.00;73.28;98871.41;119808;1153;104652;-77
2020/12/27 10:57:02;;;;;;;15.07;5.47;;;;;;;2.95;73.83;98861.08;119616;1153;104451;-77
2020/12/27 10:59:29;;;;;;;15.30;5.45;;;;;;;2.96;73.83;98853.14;119793;1153;104452;-79
2020/12/27 11:01:57;;;;;;;14.50;5.47;;;;;;;3.05;73.56;98849.23;119615;1151;104780;-77
2020/12/27 11:04:24;;;;;;;16.70;5.50;;;;;;;3.08;73.45;98842.98;119724;1152;104548;-78
2020/12/27 11:06:51;;;;;;;16.95;6.15;;;;;;;3.12;72.86;98834.91;119724;1151;104455;-75
2020/12/27 11:09:18;;;;;;;13.50;5.33;;;;;;;3.17;73.20;98818.91;119646;1153;104371;-77
2020/12/27 11:11:45;;;;;;;15.13;5.28;;;;;;;3.24;73.18;98815.08;119661;1153;104356;-77
2020/12/27 11:14:12;;;;;;;14.33;5.20;;;;;;;3.24;73.39;98811.61;119588;1153;104356;-77
2020/12/27 11:16:39;;;;;;;14.55;5.17;;;;;;;3.25;72.67;98800.17;119779;1151;104571;-77
2020/12/27 11:19:06;;;;;;;13.08;5.35;;;;;;;3.30;73.21;98797.31;119831;1151;104357;-77
2020/12/27 11:21:33;;;;;;;16.47;5.37;;;;;;;3.37;72.89;98790.84;119646;1153;104361;-76
2020/12/27 11:24:00;;;;;;;14.03;5.33;;;;;;;3.42;73.29;98797.58;119823;1151;104457;-78
2020/12/27 11:26:27;;;;;;;13.20;4.80;;;;;;;3.43;72.89;98798.45;119890;1151;104460;-76
2020/12/27 11:28:54;;;;;;;14.07;4.40;;;;;;;3.35;73.22;98788.27;119945;1151;104514;-73
2020/12/27 11:31:21;;;;;;;16.30;5.73;;;;;;;3.29;73.16;98764.90;119903;1153;104967;-73
2020/12/27 11:33:48;;;;;;;14.57;5.40;;;;;;;3.28;72.73;98758.81;119934;1151;104790;-71
2020/12/27 11:36:16;;;;;;;16.97;5.63;;;;;;;3.24;72.53;98741.48;119995;1152;104351;-74
2020/12/27 11:38:44;;;;;;;15.67;5.60;;;;;;;3.16;72.91;98727.84;119963;1152;104498;-74
2020/12/27 11:41:13;;;;;;;18.40;6.23;;;;;;;3.12;72.59;98721.89;119940;1152;104455;-73
2020/12/27 11:43:42;;;;;;;18.03;5.70;;;;;;;3.13;72.79;98722.73;119967;1152;104463;-73
2020/12/27 11:46:10;;;;;;;16.03;5.77;;;;;;;3.16;72.61;98719.95;119940;1152;104494;-72
2020/12/27 11:48:38;;;;;;;13.60;5.13;;;;;;;3.20;72.74;98705.74;120034;1152;104352;-75
2020/12/27 11:51:06;;;;;;;16.60;5.53;;;;;;;3.20;72.44;98721.52;119949;1153;104467;-73
2020/12/27 11:53:51;;;;;;;15.20;5.20;;;;;;;3.18;72.45;98720.73;119925;1152;104383;-74
2020/12/27 11:56:21;;;;;;;18.20;6.73;;;;;;;3.16;72.52;98711.23;120014;1152;104355;-74
2020/12/27 11:58:49;;;;;;;17.47;5.97;;;;;;;3.17;72.40;98699.80;119958;1154;104454;-75
2020/12/27 12:01:16;;;;;;;19.57;6.90;;;;;;;3.19;72.34;98687.44;119922;1152;104383;-75
2020/12/27 12:03:44;;;;;;;19.77;6.93;;;;;;;3.28;71.92;98681.70;119812;1152;104519;-71
2020/12/27 12:06:13;;;;;;;16.13;6.37;;;;;;;3.36;72.43;98684.81;119764;1153;104361;-76
2020/12/27 12:08:41;;;;;;;22.03;6.90;;;;;;;3.37;71.59;98688.31;119826;1153;104357;-76
2020/12/27 12:11:10;;;;;;;19.30;6.93;;;;;;;3.27;71.33;98688.75;119932;1153;104358;-76
2020/12/27 12:13:37;;;;;;;21.17;7.90;;;;;;;3.22;71.97;98689.91;119918;1153;104350;-73
2020/12/27 12:16:04;;;;;;;20.90;8.10;;;;;;;3.18;71.26;98683.94;119785;1153;104489;-74
2020/12/27 12:18:31;;;;;;;21.27;7.00;;;;;;;3.18;71.65;98686.56;120012;1153;104468;-73
2020/12/27 12:20:58;;;;;;;19.95;7.35;;;;;;;3.19;71.32;98688.27;120025;1153;104426;-74
2020/12/27 12:23:26;;;;;;;20.57;7.30;;;;;;;3.20;71.57;98668.95;119999;1152;104915;-75
2020/12/27 12:25:53;;;;;;;19.03;6.43;;;;;;;3.26;71.94;98665.19;120022;1153;104505;-72
2020/12/27 12:28:20;;;;;;;17.65;6.22;;;;;;;3.32;71.41;98670.11;119961;1153;104470;-74
2020/12/27 12:30:47;;;;;;;17.90;6.30;;;;;;;3.39;70.98;98674.15;120013;1153;104384;-74
2020/12/27 12:33:14;;;;;;;18.32;7.08;;;;;;;3.45;71.39;98683.53;120119;1153;104358;-75
2020/12/27 12:35:41;;;;;;;17.53;6.30;;;;;;;3.48;70.71;98667.56;120043;1153;104361;-76
2020/12/27 12:38:09;;;;;;;19.53;6.93;;;;;;;3.51;70.97;98667.42;120006;1151;104497;-74
2020/12/27 12:40:37;;;;;;;19.20;7.03;;;;;;;3.56;71.05;98668.05;119962;1152;104524;-73
2020/12/27 12:43:04;;;;;;;19.70;6.70;;;;;;;3.61;70.74;98661.70;120011;1152;104455;-75
2020/12/27 12:45:31;;;;;;;17.73;6.53;;;;;;;3.67;70.89;98666.66;119894;1153;104356;-77
2020/12/27 12:47:58;;;;;;;18.63;6.80;;;;;;;3.66;70.95;98663.19;119935;1153;104454;-80
2020/12/27 12:50:25;;;;;;;18.83;5.70;;;;;;;3.65;70.79;98652.73;119882;1153;104513;-74
2020/12/27 12:52:52;;;;;;;20.60;6.90;;;;;;;3.64;70.74;98662.41;119839;1152;104496;-72
2020/12/27 12:55:19;;;;;;;20.97;6.97;;;;;;;3.56;70.29;98659.31;119874;1153;104478;-76
2020/12/27 12:57:46;;;;;;;19.70;7.40;;;;;;;3.50;70.72;98643.84;119958;1153;104496;-72
2020/12/27 13:00:13;;;;;;;20.67;8.07;;;;;;;3.45;70.24;98640.59;119891;1153;104585;-73
2020/12/27 13:02:40;;;;;;;23.23;9.80;;;;;;;3.40;70.93;98625.06;119832;1152;104388;-71
2020/12/27 13:05:07;;;;;;;21.47;8.33;;;;;;;3.34;70.62;98620.94;119902;1153;104451;-71
2020/12/27 13:07:38;;;;;;;19.13;6.57;;;;;;;3.31;70.04;98612.38;119898;1151;104484;-72
2020/12/27 13:10:06;;;;;;;20.77;7.27;;;;;;;3.24;70.00;98593.44;119941;1151;104391;-72
2020/12/27 13:12:51;;;;;;;21.13;7.77;;;;;;;3.18;70.33;98591.95;120017;1151;104602;-73
2020/12/27 13:15:19;;;;;;;21.00;7.43;;;;;;;3.15;70.41;98594.73;119909;1153;104429;-73
2020/12/27 13:17:45;;;;;;;22.07;7.17;;;;;;;3.13;69.93;98580.81;120048;1152;104387;-74
2020/12/27 13:20:15;;;;;;;20.43;7.60;;;;;;;3.08;69.54;98581.05;119884;1153;104376;-73
2020/12/27 13:22:42;;;;;;;21.43;7.87;;;;;;;3.04;70.22;98574.25;122019;1151;102014;-74
2020/12/27 13:25:10;;;;;;;19.17;7.37;;;;;;;3.01;69.99;98573.56;122148;1151;103292;-74
2020/12/27 13:27:38;;;;;;;20.83;6.90;;;;;;;2.97;69.99;98565.83;120018;1151;104375;-73
2020/12/27 13:30:13;;;;;;;19.47;6.53;;;;;;;2.91;70.08;98566.13;119976;1153;104431;-74
2020/12/27 13:32:45;;;;;;;22.00;7.80;;;;;;;2.86;69.74;98559.38;120042;1152;104564;-74
2020/12/27 13:35:11;;;;;;;21.20;6.60;;;;;;;2.82;69.98;98561.32;120059;1152;104407;-75
2020/12/27 13:37:42;;;;;;;18.83;6.13;;;;;;;2.79;69.24;98570.21;119994;1152;105058;-77
2020/12/27 13:40:13;;;;;;;18.80;6.43;;;;;;;2.75;69.38;98567.80;120026;1152;104371;-72
2020/12/27 13:42:40;;;;;;;23.20;7.50;;;;;;;2.72;69.31;98568.80;120013;1151;104451;-73
2020/12/27 13:45:07;;;;;;;22.42;8.00;;;;;;;2.72;69.50;98574.06;119964;1152;104578;-72
2020/12/27 13:47:34;;;;;;;22.47;7.30;;;;;;;2.74;68.78;98569.58;120027;1151;104380;-70
2020/12/27 13:50:01;;;;;;;20.77;7.37;;;;;;;2.76;68.92;98556.36;120023;1152;104461;-72
2020/12/27 13:52:31;;;;;;;19.73;6.73;;;;;;;2.77;69.13;98537.05;119902;1152;104461;-72
2020/12/27 13:54:59;;;;;;;22.53;7.63;;;;;;;2.73;69.35;98522.37;119935;1151;104426;-70
2020/12/27 13:57:25;;;;;;;23.73;7.90;;;;;;;2.73;69.71;98523.23;119902;1152;104455;-73
2020/12/27 13:59:55;;;;;;;22.23;8.17;;;;;;;2.73;68.83;98512.73;119894;1152;104520;-70
2020/12/27 14:02:29;;;;;;;21.73;8.37;;;;;;;2.72;68.47;98513.66;119868;1152;104906;-74
2020/12/27 14:04:56;;;;;;;21.77;8.47;;;;;;;2.74;69.04;98509.17;119761;1151;104439;-71
2020/12/27 14:07:23;;;;;;;23.40;9.13;;;;;;;2.74;68.81;98505.69;119856;1152;104423;-72
2020/12/27 14:09:50;;;;;;;22.15;8.75;;;;;;;2.75;69.35;98503.00;119989;1151;104354;-75
2020/12/27 14:12:17;;;;;;;21.87;8.57;;;;;;;2.75;68.91;98499.51;119719;1151;104425;-70
2020/12/27 14:14:44;;;;;;;23.03;8.27;;;;;;;2.75;68.25;98481.98;119589;1151;104473;-69
2020/12/27 14:17:11;;;;;;;24.70;9.00;;;;;;;2.80;69.17;98481.74;119733;1151;104372;-69
2020/12/27 14:19:41;;;;;;;23.73;8.97;;;;;;;2.80;68.98;98501.00;119656;1149;104468;-69
2020/12/27 14:22:08;;;;;;;24.83;10.17;;;;;;;2.82;68.67;98486.02;119680;1151;104429;-68
2020/12/27 14:24:35;;;;;;;26.63;10.13;;;;;;;2.80;68.72;98479.98;119628;1151;104535;-70
2020/12/27 14:27:02;;;;;;;27.13;10.60;;;;;;;2.76;68.11;98483.69;119742;1151;104462;-73
2020/12/27 14:29:31;;;;;;;27.13;10.83;;;;;;;2.76;68.33;98483.69;119967;1153;104430;-72
2020/12/27 14:31:58;;;;;;;26.67;10.47;;;;;;;2.77;68.21;98492.41;119948;1151;104436;-72
2020/12/27 14:34:25;;;;;;;25.17;9.80;;;;;;;2.71;68.33;98487.45;119976;1153;104457;-73
2020/12/27 14:36:52;;;;;;;26.77;9.93;;;;;;;2.72;68.76;98474.27;119931;1153;104564;-72
2020/12/27 14:39:19;;;;;;;26.37;10.33;;;;;;;2.77;67.94;98468.77;119866;1151;104455;-75
2020/12/27 14:41:47;;;;;;;32.28;13.22;;;;;;;2.79;69.01;98457.27;120031;1151;104385;-77
2020/12/27 14:44:16;;;;;;;31.10;14.03;;;;;;;2.80;67.97;98453.72;119903;1151;104352;-76
2020/12/27 14:46:43;;;;;;;32.13;14.60;;;;;;;2.81;68.31;98450.16;119977;1151;104353;-71
2020/12/27 14:49:10;;;;;;;34.90;15.35;;;;;;;2.85;69.07;98448.22;119779;1150;104409;-70
2020/12/27 14:51:39;;;;;;;39.13;16.00;;;;;;;2.89;68.60;98446.27;120865;1151;104431;-75
2020/12/27 14:54:06;;;;;;;38.80;17.73;;;;;;;2.90;68.52;98429.58;119752;1151;104435;-71
2020/12/27 14:56:36;;;;;;;160.33;82.47;;;;;;;2.90;68.84;98433.08;119963;1150;104372;-71
2020/12/27 14:59:04;;;;;;;66.40;34.10;;;;;;;2.90;68.31;98438.33;120037;1151;104569;-72
2020/12/27 15:01:40;;;;;;;51.50;22.37;;;;;;;2.89;68.43;98441.88;120011;1151;104454;-75
2020/12/27 15:04:11;;;;;;;49.35;23.55;;;;;;;2.73;68.23;98428.69;119960;1151;104365;-72
2020/12/27 15:06:39;;;;;;;51.83;22.70;;;;;;;2.63;67.53;98422.20;119946;1151;104468;-74
2020/12/27 15:09:06;;;;;;;52.10;25.73;;;;;;;2.53;67.78;98411.31;120034;1153;104461;-73
2020/12/27 15:11:33;;;;;;;50.60;23.53;;;;;;;2.48;68.17;98403.66;120021;1153;104478;-73
2020/12/27 15:14:08;;;;;;;46.20;22.87;;;;;;;2.46;67.40;98395.00;120030;1151;104387;-70
2020/12/27 15:16:34;;;;;;;48.23;22.82;;;;;;;2.43;68.05;98389.94;120067;1151;104354;-73
2020/12/27 15:19:01;;;;;;;46.57;21.23;;;;;;;2.41;67.36;98391.78;120089;1151;104381;-71
2020/12/27 15:21:33;;;;;;;46.53;22.27;;;;;;;2.34;68.20;98385.97;120093;1153;104396;-73
2020/12/27 15:24:02;;;;;;;42.30;18.57;;;;;;;2.31;67.92;98388.75;120069;1151;104466;-69
2020/12/27 15:26:28;;;;;;;40.23;18.60;;;;;;;2.29;68.14;98387.14;119979;1151;104461;-72
2020/12/27 15:28:57;;;;;;;42.97;18.67;;;;;;;2.28;67.63;98380.19;120097;1151;104381;-72
2020/12/27 15:31:24;;;;;;;41.40;19.70;;;;;;;2.29;67.40;98382.73;120039;1154;104355;-71
2020/12/27 15:33:51;;;;;;;45.30;21.73;;;;;;;2.31;67.59;98377.42;120014;1151;104348;-71
2020/12/27 15:36:18;;;;;;;44.93;21.87;;;;;;;2.30;67.29;98367.84;120027;1152;104356;-73
2020/12/27 15:38:47;;;;;;;42.53;21.63;;;;;;;2.31;67.35;98359.05;120052;1151;104355;-72
2020/12/27 15:41:15;;;;;;;45.93;22.43;;;;;;;2.32;67.56;98350.25;120052;1151;104414;-71
2020/12/27 15:43:45;;;;;;;57.40;25.57;;;;;;;2.35;68.21;98352.72;119953;1153;104415;-77
2020/12/27 15:46:13;;;;;;;71.10;33.07;;;;;;;2.36;68.11;98360.50;120082;1151;104368;-84
2020/12/27 15:48:40;;;;;;;63.77;31.43;;;;;;;2.35;68.07;98357.97;120310;1153;104352;-74
2020/12/27 15:51:09;;;;;;;66.43;30.57;;;;;;;2.31;68.02;98351.17;119855;1151;104395;-73
2020/12/27 15:53:37;;;;;;;58.07;28.07;;;;;;;2.25;67.30;98349.69;119970;1153;104351;-73
2020/12/27 15:56:05;;;;;;;64.33;27.63;;;;;;;2.23;67.99;98348.95;119913;1153;104426;-70
2020/12/27 15:58:32;;;;;;;62.40;29.03;;;;;;;2.19;67.38;98342.98;119959;1151;104378;-69
2020/12/27 16:00:59;;;;;;;62.43;29.80;;;;;;;2.17;67.96;98333.50;120199;1153;103438;-70
2020/12/27 16:03:26;;;;;;;61.75;29.72;;;;;;;2.16;67.39;98323.94;119996;1153;104456;-75
2020/12/27 16:05:53;;;;;;;62.37;30.63;;;;;;;2.15;67.52;98316.98;120005;1153;104453;-73
2020/12/27 16:08:20;;;;;;;91.13;47.47;;;;;;;2.12;67.55;98304.85;120091;1151;104437;-83
2020/12/27 16:10:47;;;;;;;99.20;49.07;;;;;;;2.10;68.19;98304.08;119975;1152;104383;-77
2020/12/27 16:13:16;;;;;;;89.87;41.80;;;;;;;2.08;67.82;98305.93;120101;1152;104558;-70
2020/12/27 16:15:45;;;;;;;90.70;45.03;;;;;;;2.06;67.90;98299.91;120009;1151;104364;-72
2020/12/27 16:18:12;;;;;;;103.57;48.73;;;;;;;2.02;67.83;98286.11;119980;1153;104455;-71
2020/12/27 16:20:39;;;;;;;91.60;47.40;;;;;;;2.03;67.88;98279.11;120037;1153;104382;-70
2020/12/27 16:23:07;;;;;;;94.10;45.67;;;;;;;2.02;67.58;98274.78;120336;1152;104732;-71
2020/12/27 16:25:33;;;;;;;107.00;48.70;;;;;;;2.00;68.09;98268.77;119971;1153;104853;-72
2020/12/27 16:28:00;;;;;;;105.95;49.83;;;;;;;1.99;67.29;98269.69;120046;1151;104400;-74
2020/12/27 16:30:27;;;;;;;100.90;46.23;;;;;;;1.95;67.50;98268.98;119993;1151;104454;-72
2020/12/27 16:32:55;;;;;;;96.97;46.37;;;;;;;1.93;67.34;98276.08;120017;1151;104526;-72
2020/12/27 16:35:22;;;;;;;108.65;49.67;;;;;;;1.89;67.32;98259.66;120049;1153;104381;-74
2020/12/27 16:37:49;;;;;;;110.65;48.10;;;;;;;1.84;67.57;98251.17;120044;1151;104462;-73
2020/12/27 16:40:16;;;;;;;103.53;48.93;;;;;;;1.82;67.51;98260.88;120046;1152;104479;-73
2020/12/27 16:42:43;;;;;;;71.97;32.40;;;;;;;1.79;67.17;98261.03;119952;1151;104598;-74
2020/12/27 16:45:10;;;;;;;51.03;24.57;;;;;;;1.73;67.40;98248.23;120035;1153;104609;-75
2020/12/27 16:47:38;;;;;;;47.57;21.93;;;;;;;1.49;66.71;98236.25;119955;1151;104806;-70
2020/12/27 16:50:06;;;;;;;45.90;21.70;;;;;;;1.42;67.12;98240.13;120050;1151;104354;-74
2020/12/27 16:52:33;;;;;;;40.67;18.13;;;;;;;1.37;66.86;98239.49;120005;1151;104425;-76
2020/12/27 16:55:00;;;;;;;41.83;18.67;;;;;;;1.32;66.78;98233.63;119983;1152;104463;-72
2020/12/27 16:57:27;;;;;;;37.20;17.37;;;;;;;1.30;67.23;98224.98;120060;1151;104710;-72
2020/12/27 17:00:10;;;;;;;36.70;17.07;;;;;;;1.27;66.83;98225.96;119983;1153;104438;-73
2020/12/27 17:02:37;;;;;;;40.73;17.03;;;;;;;1.32;67.00;98212.66;119922;1152;104484;-71
2020/12/27 17:05:09;;;;;;;37.60;16.07;;;;;;;1.31;66.89;98210.96;119916;1154;104377;-73
2020/12/27 17:07:37;;;;;;;35.37;13.90;;;;;;;1.27;67.02;98207.63;120013;1152;104391;-76
2020/12/27 17:10:08;;;;;;;33.93;14.40;;;;;;;1.18;66.90;98211.55;122014;1151;102753;-76
2020/12/27 17:12:35;;;;;;;37.07;14.87;;;;;;;1.13;67.06;98218.77;120542;1152;104860;-76
2020/12/27 17:15:17;;;;;;;42.37;15.97;;;;;;;1.07;66.82;98205.13;121916;1151;102269;-74
2020/12/27 17:17:44;;;;;;;31.97;13.63;;;;;;;1.01;66.64;98188.78;120818;1151;104452;-74
2020/12/27 17:20:11;;;;;;;31.07;11.97;;;;;;;0.99;66.48;98195.03;119957;1151;104426;-71
2020/12/27 17:22:42;;;;;;;26.90;11.73;;;;;;;1.00;66.87;98189.70;120098;1151;104352;-71
2020/12/27 17:25:10;;;;;;;25.60;10.73;;;;;;;0.96;67.06;98182.91;120032;1153;104460;-76
2020/12/27 17:27:37;;;;;;;30.20;12.90;;;;;;;0.96;66.56;98177.67;120093;1151;104455;-74
2020/12/27 17:30:05;;;;;;;29.00;11.60;;;;;;;0.97;66.83;98186.40;119972;1154;104376;-72
2020/12/27 17:32:32;;;;;;;28.97;11.50;;;;;;;0.98;66.56;98191.55;120056;1152;104402;-70
2020/12/27 17:34:58;;;;;;;26.20;11.40;;;;;;;1.00;66.91;98188.88;120008;1151;104490;-74
2020/12/27 17:37:26;;;;;;;28.90;12.33;;;;;;;0.98;67.12;98180.23;120073;1151;104348;-73
2020/12/27 17:40:00;;;;;;;30.83;12.37;;;;;;;0.98;66.78;98161.91;119973;1151;104388;-76
2020/12/27 17:42:27;;;;;;;30.43;11.90;;;;;;;1.06;67.25;98166.77;119866;1152;104419;-78
2020/12/27 17:44:54;;;;;;;32.60;12.53;;;;;;;1.10;66.83;98161.30;119939;1152;104358;-81
2020/12/27 17:47:24;;;;;;;30.67;13.27;;;;;;;1.14;67.12;98164.63;119978;1151;104448;-75
2020/12/27 17:49:52;;;;;;;36.93;15.47;;;;;;;1.13;66.97;98165.55;119945;1153;104442;-69
2020/12/27 17:52:19;;;;;;;31.27;14.23;;;;;;;1.16;66.83;98170.64;119959;1152;104465;-70
2020/12/27 17:54:49;;;;;;;34.03;14.57;;;;;;;1.18;66.85;98163.56;119954;1153;104375;-73
2020/12/27 17:57:16;;;;;;;37.53;16.00;;;;;;;1.23;66.83;98147.61;119919;1152;105431;-81
2020/12/27 17:59:43;;;;;;;37.60;15.90;;;;;;;1.26;66.98;98150.91;119934;1153;104508;-79
2020/12/27 18:02:11;;;;;;;40.00;17.20;;;;;;;1.24;66.55;98149.30;119994;1151;104396;-79
2020/12/27 18:04:43;;;;;;;39.47;17.97;;;;;;;1.18;66.90;98150.46;120175;1151;104551;-75
2020/12/27 18:07:10;;;;;;;39.47;16.47;;;;;;;1.14;66.78;98152.36;120029;1151;104457;-71
2020/12/27 18:09:40;;;;;;;37.03;16.63;;;;;;;1.11;67.10;98135.97;120010;1153;104561;-82
2020/12/27 18:12:07;;;;;;;39.73;19.03;;;;;;;1.07;66.46;98140.48;120015;1151;104515;-77
2020/12/27 18:14:34;;;;;;;38.73;16.27;;;;;;;1.02;66.68;98125.02;120084;1151;104398;-77
2020/12/27 18:17:03;;;;;;;40.90;19.00;;;;;;;1.01;66.65;98119.86;119918;1153;104420;-80
2020/12/27 18:19:30;;;;;;;39.83;18.40;;;;;;;0.94;66.29;98124.53;120275;1151;104854;-74
2020/12/27 18:21:58;;;;;;;40.53;17.97;;;;;;;0.96;66.98;98125.30;120054;1151;104354;-75
2020/12/27 18:24:26;;;;;;;38.35;17.75;;;;;;;0.98;66.91;98122.62;119974;1153;104664;-77
2020/12/27 18:26:52;;;;;;;39.83;18.80;;;;;;;1.06;66.97;98117.00;119746;1151;104358;-78
2020/12/27 18:29:21;;;;;;;41.13;18.27;;;;;;;1.12;66.69;98117.54;119903;1151;104451;-78
2020/12/27 18:31:49;;;;;;;41.07;17.90;;;;;;;1.19;67.20;98110.25;119884;1151;104510;-76
2020/12/27 18:34:20;;;;;;;41.67;20.07;;;;;;;1.24;66.75;98102.14;119931;1151;104351;-77
2020/12/27 18:36:49;;;;;;;40.87;19.50;;;;;;;1.25;67.08;98103.84;119887;1151;104372;-78
2020/12/27 18:39:17;;;;;;;39.37;18.83;;;;;;;1.26;66.72;98092.44;119872;1151;104471;-81
2020/12/27 18:41:44;;;;;;;40.23;18.40;;;;;;;1.28;66.91;98090.59;119908;1151;104394;-82
2020/12/27 18:44:12;;;;;;;43.57;20.57;;;;;;;1.29;66.97;98076.56;119972;1151;104404;-76
2020/12/27 18:46:39;;;;;;;51.05;23.40;;;;;;;1.31;66.59;98086.03;119923;1151;104356;-78
2020/12/27 18:49:16;;;;;;;60.50;27.40;;;;;;;1.33;67.02;98078.94;120212;1151;104409;-75
2020/12/27 18:51:45;;;;;;;61.90;29.90;;;;;;;1.37;67.00;98071.79;119998;1151;104526;-74
2020/12/27 18:54:15;;;;;;;59.93;30.63;;;;;;;1.39;67.14;98067.31;120010;1151;104493;-79
2020/12/27 18:56:47;;;;;;;63.40;30.03;;;;;;;1.41;66.71;98056.74;120091;1151;104382;-78
2020/12/27 18:59:17;;;;;;;115.03;61.47;;;;;;;1.41;66.49;98054.98;120012;1151;104354;-75
2020/12/27 19:01:43;;;;;;;83.73;40.83;;;;;;;1.41;67.08;98057.61;120008;1151;104586;-74
2020/12/27 19:04:11;;;;;;;71.43;33.07;;;;;;;1.39;66.72;98048.97;119931;1153;104375;-80
2020/12/27 19:06:40;;;;;;;65.10;31.63;;;;;;;1.40;66.91;98039.33;119999;1151;104463;-75
2020/12/27 19:09:08;;;;;;;58.80;28.42;;;;;;;1.39;66.91;98038.49;120014;1151;104439;-78
2020/12/27 19:11:37;;;;;;;58.37;28.63;;;;;;;1.38;66.66;98031.56;120080;1151;104368;-72
2020/12/27 19:14:05;;;;;;;59.67;29.13;;;;;;;1.38;67.20;98030.70;119879;1151;104471;-76
2020/12/27 19:16:38;;;;;;;57.30;28.70;;;;;;;1.34;66.86;98022.99;119789;1151;104458;-75
2020/12/27 19:19:07;;;;;;;58.80;28.10;;;;;;;1.33;66.48;98012.61;119865;1151;104388;-74
2020/12/27 19:21:36;;;;;;;66.93;29.20;;;;;;;1.36;66.80;98001.10;120027;1152;104364;-76
2020/12/27 19:24:05;;;;;;;64.73;28.60;;;;;;;1.37;67.37;98015.90;120030;1151;104361;-73
2020/12/27 19:26:33;;;;;;;69.47;30.33;;;;;;;1.38;66.76;98009.73;120118;1151;104377;-81
2020/12/27 19:29:00;;;;;;;75.20;34.20;;;;;;;1.40;66.62;98013.98;119999;1151;104448;-77
2020/12/27 19:31:27;;;;;;;73.00;33.33;;;;;;;1.40;66.46;98013.13;120016;1151;104449;-75
2020/12/27 19:33:56;;;;;;;74.47;34.50;;;;;;;1.42;66.95;98006.89;119995;1151;104419;-81
2020/12/27 19:36:24;;;;;;;70.83;32.03;;;;;;;1.42;66.67;98013.89;120051;1151;104561;-83
2020/12/27 19:38:52;;;;;;;64.45;29.60;;;;;;;1.42;66.98;98012.13;119982;1151;104396;-76
2020/12/27 19:41:23;;;;;;;64.30;29.87;;;;;;;1.42;67.02;98021.75;119996;1151;104425;-81
2020/12/27 19:43:56;;;;;;;67.63;32.27;;;;;;;1.42;66.49;97998.16;120003;1152;104393;-75
2020/12/27 19:46:27;;;;;;;74.60;36.70;;;;;;;1.42;66.88;97995.55;119932;1151;104390;-74
2020/12/27 19:48:55;;;;;;;91.17;40.50;;;;;;;1.41;66.47;97994.72;119957;1152;104506;-78
2020/12/27 19:51:27;;;;;;;93.13;45.80;;;;;;;1.39;66.70;98007.05;119960;1153;104348;-74
2020/12/27 19:53:56;;;;;;;88.80;40.80;;;;;;;1.42;66.72;98001.65;119989;1153;104464;-79
2020/12/27 19:56:27;;;;;;;78.47;37.73;;;;;;;1.41;66.79;97989.47;120012;1153;104398;-75
2020/12/27 19:58:55;;;;;;;76.73;35.37;;;;;;;1.39;66.88;97987.84;119906;1152;104455;-82
2020/12/27 20:01:23;;;;;;;68.90;32.17;;;;;;;1.37;66.76;97979.22;119939;1153;106332;-80
2020/12/27 20:03:50;;;;;;;77.43;33.57;;;;;;;1.36;66.50;97975.77;119601;1151;105293;-76
2020/12/27 20:06:21;;;;;;;71.63;32.23;;;;;;;1.34;66.93;97975.83;119842;1151;104369;-72
2020/12/27 20:08:51;;;;;;;67.07;30.83;;;;;;;1.35;66.98;97971.45;119929;1152;104384;-75
2020/12/27 20:11:25;;;;;;;74.17;32.73;;;;;;;1.33;67.24;97963.66;119928;1153;104663;-85
2020/12/27 20:13:52;;;;;;;74.63;33.13;;;;;;;1.32;66.48;97966.37;120038;1151;104844;-80
2020/12/27 20:16:24;;;;;;;88.58;38.75;;;;;;;1.32;66.76;97964.58;119952;1151;104449;-76
2020/12/27 20:18:55;;;;;;;76.70;34.03;;;;;;;1.32;66.59;97966.37;119887;1151;104923;-73
2020/12/27 20:21:22;;;;;;;62.93;29.70;;;;;;;1.32;66.80;97961.96;120002;1151;104356;-76
2020/12/27 20:23:50;;;;;;;49.43;23.43;;;;;;;1.33;66.99;97957.58;119929;1151;104407;-73
2020/12/27 20:26:20;;;;;;;43.70;19.90;;;;;;;1.32;66.37;97953.27;120073;1151;104430;-73